Time;durP1;ratioP1;P1;durP2;ratioP2;P2;SDS_P1;SDS_P2;PMS_P1;PMS_P2;Temp;Humidity;BMP_temperature;BMP_pressure;BME280_temperature;BME280_humidity;BME280_pressure;Samples;Min_cycle;Max_cycle;Signal;HPM_P1;HPM_P2
2022/06/28 00:00:35;;;;;;;8.55;6.55;;;16.50;76.40;;;;;;5114351;28;20027;-68
2022/06/28 00:03:01;;;;;;;9.38;6.45;;;16.50;76.30;;;;;;5114344;28;20046;-68
2022/06/28 00:05:26;;;;;;;8.75;7.18;;;16.50;75.90;;;;;;5114292;28;20028;-68
2022/06/28 00:07:52;;;;;;;9.82;7.18;;;16.40;75.90;;;;;;5114247;28;20028;-68
2022/06/28 00:10:18;;;;;;;10.07;7.25;;;16.30;76.40;;;;;;5114208;28;20028;-68
2022/06/28 00:12:43;;;;;;;8.43;7.10;;;16.30;76.60;;;;;;5114126;28;20016;-68
2022/06/28 00:17:57;;;;;;;5.82;5.22;;;16.20;76.10;;;;;;5114418;28;20150;-68
2022/06/28 00:20:22;;;;;;;5.93;5.30;;;16.10;76.20;;;;;;5113998;28;20035;-68
2022/06/28 00:22:48;;;;;;;6.00;5.40;;;16.00;76.30;;;;;;5113957;28;20091;-68
2022/06/28 00:25:14;;;;;;;6.63;5.53;;;15.80;76.70;;;;;;5113912;28;20036;-68
2022/06/28 00:27:40;;;;;;;6.55;5.78;;;15.90;76.80;;;;;;5113912;28;20133;-68
2022/06/28 00:30:07;;;;;;;7.65;6.18;;;16.00;76.60;;;;;;5113662;28;20070;-68
2022/06/28 00:32:33;;;;;;;8.70;5.85;;;16.00;76.80;;;;;;5113831;28;20016;-68
2022/06/28 00:34:59;;;;;;;6.80;4.93;;;16.00;76.60;;;;;;5113750;28;20051;-68
2022/06/28 00:37:26;;;;;;;6.90;5.93;;;16.00;75.90;;;;;;5113730;28;20031;-68
2022/06/28 00:39:51;;;;;;;7.20;5.82;;;16.00;75.60;;;;;;5113713;28;20034;-68
2022/06/28 00:42:17;;;;;;;6.95;5.88;;;16.00;75.50;;;;;;5113636;28;20020;-68
2022/06/28 00:44:43;;;;;;;9.88;6.65;;;16.00;75.60;;;;;;5112981;28;20017;-68
2022/06/28 00:47:09;;;;;;;8.10;6.35;;;16.00;75.90;;;;;;5113439;28;20024;-68
2022/06/28 00:49:40;;;;;;;6.78;5.97;;;16.00;75.80;;;;;;5113660;28;20034;-68
2022/06/28 00:52:07;;;;;;;8.88;7.07;;;16.10;75.70;;;;;;5113635;28;20024;-68
2022/06/28 00:54:32;;;;;;;9.70;6.03;;;16.00;75.80;;;;;;5113492;28;20043;-68
2022/06/28 00:56:58;;;;;;;7.60;6.40;;;16.10;76.00;;;;;;5113476;28;20036;-68
2022/06/28 00:59:24;;;;;;;7.80;6.18;;;16.00;75.60;;;;;;5113516;28;20047;-68
2022/06/28 01:01:50;;;;;;;7.88;6.68;;;16.00;75.10;;;;;;5113441;28;20032;-68
2022/06/28 01:04:16;;;;;;;8.70;6.80;;;15.90;75.00;;;;;;5113443;28;20028;-68
2022/06/28 01:06:42;;;;;;;7.50;5.97;;;15.70;75.90;;;;;;5095572;28;20084;-68
2022/06/28 01:09:08;;;;;;;8.45;6.03;;;15.70;75.80;;;;;;5113381;28;20096;-68
2022/06/28 01:11:33;;;;;;;8.35;6.32;;;15.60;76.00;;;;;;5113269;28;20036;-68
2022/06/28 01:14:01;;;;;;;9.07;6.55;;;15.60;76.20;;;;;;5113327;28;20024;-68
2022/06/28 01:16:28;;;;;;;9.77;7.18;;;15.60;76.40;;;;;;5113289;28;20012;-68
2022/06/28 01:18:54;;;;;;;9.60;6.75;;;15.70;76.60;;;;;;5113270;28;20103;-68
2022/06/28 01:21:23;;;;;;;7.88;6.35;;;15.70;76.70;;;;;;5113262;28;20028;-68
2022/06/28 01:23:48;;;;;;;9.57;6.95;;;15.70;76.80;;;;;;5113231;28;20024;-68
2022/06/28 01:26:19;;;;;;;9.85;6.63;;;15.80;76.80;;;;;;5113168;28;20040;-68
2022/06/28 01:28:46;;;;;;;9.38;7.15;;;15.70;76.70;;;;;;5112897;28;20097;-68
2022/06/28 01:31:12;;;;;;;10.43;6.63;;;15.60;77.10;;;;;;5113097;28;20024;-68
2022/06/28 01:33:39;;;;;;;10.85;6.72;;;15.50;77.40;;;;;;5113146;28;20024;-68
2022/06/28 01:36:06;;;;;;;9.68;6.75;;;15.50;78.00;;;;;;5113141;28;20054;-68
2022/06/28 01:38:33;;;;;;;10.45;7.00;;;15.50;78.50;;;;;;5113078;28;20028;-68
2022/06/28 01:40:59;;;;;;;11.90;7.10;;;15.50;78.70;;;;;;5095208;28;20032;-68
2022/06/28 01:43:26;;;;;;;8.90;6.70;;;15.60;78.80;;;;;;5113095;28;20032;-68
2022/06/28 01:45:53;;;;;;;9.43;6.72;;;15.60;78.80;;;;;;5113057;28;20020;-68
2022/06/28 01:48:20;;;;;;;11.82;7.28;;;15.60;78.80;;;;;;5112930;28;20036;-68
2022/06/28 01:50:47;;;;;;;8.57;7.20;;;15.60;79.00;;;;;;5112860;28;20025;-68
2022/06/28 01:53:13;;;;;;;9.30;7.13;;;15.50;79.10;;;;;;5113112;28;20020;-68
2022/06/28 01:55:39;;;;;;;10.07;7.13;;;15.50;79.40;;;;;;5112920;28;20043;-68
2022/06/28 01:58:05;;;;;;;9.57;6.97;;;15.50;79.30;;;;;;5116420;28;20024;-68
2022/06/28 02:00:31;;;;;;;8.98;6.63;;;15.50;79.40;;;;;;5116687;28;20024;-68
2022/06/28 02:02:57;;;;;;;8.63;6.35;;;15.50;79.30;;;;;;5116635;28;20048;-68
2022/06/28 02:05:23;;;;;;;7.45;6.35;;;15.40;79.10;;;;;;5116623;28;20016;-68
2022/06/28 02:07:51;;;;;;;8.80;6.43;;;15.40;79.10;;;;;;5116588;28;20027;-68
2022/06/28 02:10:18;;;;;;;10.15;6.60;;;15.30;79.20;;;;;;5098396;28;20056;-68
2022/06/28 02:12:43;;;;;;;9.50;6.70;;;15.20;79.20;;;;;;5116497;28;20020;-68
2022/06/28 02:15:10;;;;;;;11.82;6.78;;;15.20;79.40;;;;;;5116438;28;20035;-68
2022/06/28 02:17:36;;;;;;;8.85;6.70;;;15.20;79.70;;;;;;5098433;28;20038;-68
2022/06/28 02:20:02;;;;;;;8.85;6.10;;;15.20;80.00;;;;;;5098380;28;20082;-68
2022/06/28 02:22:27;;;;;;;9.05;6.15;;;15.20;79.90;;;;;;5116323;28;20079;-68
2022/06/28 02:24:53;;;;;;;7.97;6.43;;;15.20;79.70;;;;;;5116301;28;20032;-68
2022/06/28 02:27:19;;;;;;;8.02;6.35;;;15.20;79.80;;;;;;5116320;28;20019;-68
2022/06/28 02:29:45;;;;;;;7.65;6.03;;;15.20;79.90;;;;;;5115797;28;20056;-68
2022/06/28 02:32:11;;;;;;;10.20;6.35;;;15.20;80.00;;;;;;5116167;28;20028;-68
2022/06/28 02:40:21;;;;;;;9.68;6.60;;;15.10;80.00;;;;;;5116208;28;20062;-68
2022/06/28 02:42:48;;;;;;;10.40;6.00;;;15.00;80.10;;;;;;5100572;28;20028;-68
2022/06/28 02:45:13;;;;;;;10.60;6.47;;;15.00;80.20;;;;;;5115901;28;20383;-68
2022/06/28 02:47:39;;;;;;;8.48;6.15;;;15.00;80.20;;;;;;5115966;28;20040;-68
2022/06/28 02:50:05;;;;;;;9.63;6.30;;;15.00;80.30;;;;;;5115680;28;20036;-68
2022/06/28 02:52:31;;;;;;;11.35;6.28;;;15.00;80.40;;;;;;5115706;28;20024;-68
2022/06/28 02:54:56;;;;;;;9.32;5.97;;;15.00;80.30;;;;;;5115715;28;20046;-68
2022/06/28 02:57:22;;;;;;;9.82;5.65;;;15.00;80.40;;;;;;5115658;28;20024;-68
2022/06/28 02:59:47;;;;;;;8.90;5.90;;;14.90;80.20;;;;;;5115581;28;20028;-68
2022/06/28 03:02:13;;;;;;;11.07;6.43;;;14.90;80.20;;;;;;5115638;28;20116;-68
2022/06/28 03:04:39;;;;;;;7.32;5.38;;;14.80;80.30;;;;;;5115447;28;20092;-68
2022/06/28 03:07:04;;;;;;;9.77;6.25;;;14.90;80.50;;;;;;5115593;28;20032;-68
2022/06/28 03:09:30;;;;;;;9.68;5.90;;;14.90;80.50;;;;;;5114472;28;20051;-68
2022/06/28 03:11:55;;;;;;;12.18;5.90;;;14.80;80.50;;;;;;5115306;28;20028;-68
2022/06/28 03:14:21;;;;;;;11.90;6.03;;;14.80;80.60;;;;;;5115267;28;20033;-68
2022/06/28 03:16:47;;;;;;;7.65;5.28;;;14.80;80.70;;;;;;5097308;28;20020;-68
2022/06/28 03:19:12;;;;;;;7.40;5.50;;;14.80;80.70;;;;;;5115163;28;20028;-68
2022/06/28 03:21:38;;;;;;;10.30;5.72;;;14.70;80.60;;;;;;5115098;28;20029;-68
2022/06/28 03:24:03;;;;;;;7.38;5.47;;;14.70;80.60;;;;;;5115212;28;20053;-68
2022/06/28 03:26:29;;;;;;;10.13;5.90;;;14.70;80.70;;;;;;5115098;28;20032;-68
2022/06/28 03:28:55;;;;;;;9.23;5.38;;;14.80;81.00;;;;;;5114726;28;20059;-68
2022/06/28 03:31:20;;;;;;;8.15;5.32;;;14.80;80.90;;;;;;5114871;28;20039;-68
2022/06/28 03:33:46;;;;;;;7.80;5.07;;;14.70;80.80;;;;;;5080249;28;20053;-68
2022/06/28 03:36:11;;;;;;;11.25;5.68;;;14.70;80.70;;;;;;5114831;28;20035;-68
2022/06/28 03:38:37;;;;;;;10.85;6.07;;;14.60;81.10;;;;;;5114836;28;20028;-68
2022/06/28 03:41:02;;;;;;;8.15;5.32;;;14.60;80.80;;;;;;5096911;28;20483;-68
2022/06/28 03:43:28;;;;;;;6.90;5.53;;;14.70;81.00;;;;;;5114738;28;20036;-68
2022/06/28 03:45:54;;;;;;;11.75;5.47;;;14.70;81.00;;;;;;5114632;28;20039;-68
2022/06/28 03:48:19;;;;;;;10.27;5.63;;;14.70;81.00;;;;;;5114634;28;20096;-68
2022/06/28 03:50:45;;;;;;;8.82;5.63;;;14.70;81.80;;;;;;5114474;28;20024;-68
2022/06/28 03:53:10;;;;;;;7.15;5.28;;;14.70;80.90;;;;;;5114465;28;20028;-68
2022/06/28 03:55:36;;;;;;;9.77;5.15;;;14.70;80.80;;;;;;5114501;28;20020;-68
2022/06/28 03:58:01;;;;;;;8.40;5.22;;;14.70;81.70;;;;;;5114453;28;20028;-68
2022/06/28 04:00:27;;;;;;;7.78;5.53;;;14.70;80.70;;;;;;5114383;28;20052;-68
2022/06/28 04:02:53;;;;;;;9.02;5.20;;;14.70;80.70;;;;;;5096437;28;20036;-68
2022/06/28 04:05:18;;;;;;;10.50;5.15;;;14.60;80.70;;;;;;5114301;28;20110;-68
2022/06/28 04:07:44;;;;;;;7.82;5.07;;;14.60;80.70;;;;;;5096463;28;20024;-68
2022/06/28 04:10:09;;;;;;;9.40;5.63;;;14.60;80.70;;;;;;5114096;28;20043;-68
2022/06/28 04:12:35;;;;;;;8.90;5.13;;;14.60;80.80;;;;;;5096285;28;20021;-68
2022/06/28 04:15:01;;;;;;;8.23;5.35;;;14.50;81.00;;;;;;5114096;28;20024;-68
2022/06/28 04:17:26;;;;;;;8.93;5.38;;;14.50;81.10;;;;;;5114093;28;20035;-68
2022/06/28 04:19:52;;;;;;;7.22;5.00;;;14.50;81.20;;;;;;5113981;28;20020;-68
2022/06/28 04:22:18;;;;;;;6.45;4.65;;;14.50;81.30;;;;;;5114027;28;20034;-68
2022/06/28 04:24:43;;;;;;;7.13;5.00;;;14.50;81.10;;;;;;5095954;28;20035;-68
2022/06/28 04:27:09;;;;;;;10.45;5.40;;;14.50;81.20;;;;;;5114067;28;20031;-68
2022/06/28 04:29:34;;;;;;;18.25;5.97;;;14.60;81.40;;;;;;5092308;28;20052;-68
2022/06/28 04:32:01;;;;;;;8.52;5.20;;;14.60;81.40;;;;;;5093563;28;20032;-68
2022/06/28 04:34:26;;;;;;;10.52;5.47;;;14.70;81.30;;;;;;5093529;28;20040;-68
2022/06/28 04:36:52;;;;;;;9.65;5.88;;;14.70;81.20;;;;;;5093485;28;20430;-68
2022/06/28 04:39:18;;;;;;;10.88;5.40;;;14.70;81.30;;;;;;5093457;28;20484;-68
2022/06/28 04:41:43;;;;;;;8.15;5.80;;;14.80;81.20;;;;;;5093412;28;20025;-68
2022/06/28 04:44:09;;;;;;;11.32;6.18;;;14.70;81.40;;;;;;5093364;28;20047;-68
2022/06/28 04:46:35;;;;;;;8.93;5.28;;;14.80;81.60;;;;;;5092351;28;20038;-68
2022/06/28 04:49:01;;;;;;;7.50;5.38;;;14.80;81.50;;;;;;5093346;28;20029;-68
2022/06/28 04:51:27;;;;;;;9.85;5.72;;;14.80;81.20;;;;;;5093330;28;20055;-68
2022/06/28 04:53:53;;;;;;;10.32;5.35;;;14.90;81.20;;;;;;5093280;28;20036;-68
2022/06/28 04:56:18;;;;;;;8.13;5.35;;;14.90;81.10;;;;;;5093208;28;20036;-68
2022/06/28 04:58:44;;;;;;;7.18;5.40;;;14.90;80.90;;;;;;5093354;28;20024;-68
2022/06/28 05:01:09;;;;;;;8.35;5.50;;;14.90;80.90;;;;;;5093147;28;20042;-68
2022/06/28 05:03:35;;;;;;;9.55;5.70;;;14.90;81.00;;;;;;5093162;28;20032;-68
2022/06/28 05:06:01;;;;;;;7.40;5.10;;;15.00;81.20;;;;;;5093106;28;20031;-68
2022/06/28 05:08:26;;;;;;;9.65;5.43;;;14.90;81.60;;;;;;5093104;28;20037;-68
2022/06/28 05:10:52;;;;;;;7.60;5.32;;;15.00;81.70;;;;;;5093010;28;20040;-68
2022/06/28 05:13:18;;;;;;;7.22;5.03;;;15.00;81.70;;;;;;5093191;28;20025;-68
2022/06/28 05:15:43;;;;;;;9.27;5.07;;;15.00;81.70;;;;;;5093059;28;20021;-68
2022/06/28 05:18:09;;;;;;;10.43;5.38;;;15.00;81.70;;;;;;5093042;28;20023;-68
2022/06/28 05:20:35;;;;;;;8.02;5.72;;;15.00;81.80;;;;;;5092983;28;20036;-68
2022/06/28 05:23:01;;;;;;;7.35;4.88;;;15.00;81.60;;;;;;5091914;28;20021;-68
2022/06/28 05:25:26;;;;;;;10.88;5.50;;;15.10;81.50;;;;;;5092932;28;20116;-68
2022/06/28 05:27:52;;;;;;;9.73;4.95;;;15.10;81.50;;;;;;5091870;28;20032;-68
2022/06/28 05:30:18;;;;;;;7.30;5.07;;;15.10;81.20;;;;;;5112776;28;20048;-68
2022/06/28 05:32:44;;;;;;;8.98;5.30;;;15.10;81.30;;;;;;5116209;28;20032;-68
2022/06/28 05:35:09;;;;;;;10.13;5.60;;;15.00;81.40;;;;;;5117167;28;20054;-68
2022/06/28 05:37:35;;;;;;;8.63;5.70;;;15.10;81.50;;;;;;5117265;28;20047;-68
2022/06/28 05:40:02;;;;;;;12.00;5.78;;;15.10;81.70;;;;;;5117138;28;20020;-68
2022/06/28 05:42:27;;;;;;;9.25;4.82;;;15.20;81.70;;;;;;5099395;28;20046;-68
2022/06/28 05:44:53;;;;;;;8.93;5.03;;;15.20;81.70;;;;;;5117061;28;20028;-67
2022/06/28 05:47:19;;;;;;;7.18;5.00;;;15.20;81.60;;;;;;5116984;28;20028;-68
2022/06/28 05:49:44;;;;;;;11.93;5.53;;;15.20;81.20;;;;;;5116915;28;20040;-68
2022/06/28 05:52:10;;;;;;;9.45;4.78;;;15.30;81.30;;;;;;5116823;28;20040;-68
2022/06/28 05:54:36;;;;;;;9.13;5.03;;;15.30;80.70;;;;;;5116977;28;20096;-68
2022/06/28 05:57:01;;;;;;;9.32;4.90;;;15.30;81.10;;;;;;5116771;28;20070;-68
2022/06/28 05:59:27;;;;;;;10.02;5.13;;;15.30;81.10;;;;;;5116719;28;20023;-68
2022/06/28 06:01:55;;;;;;;11.57;5.47;;;15.40;80.80;;;;;;5116667;28;20032;-68
2022/06/28 06:04:21;;;;;;;8.57;5.25;;;15.40;80.90;;;;;;5116673;28;20028;-68
2022/06/28 06:06:47;;;;;;;11.35;5.38;;;15.50;81.10;;;;;;5116622;28;20023;-68
2022/06/28 06:09:13;;;;;;;13.55;5.30;;;15.60;81.10;;;;;;5116531;28;20028;-68
2022/06/28 06:11:38;;;;;;;9.18;5.00;;;15.70;80.90;;;;;;5116584;28;20088;-68
2022/06/28 06:14:05;;;;;;;11.05;4.93;;;15.70;81.60;;;;;;5116474;28;20024;-68
2022/06/28 06:16:32;;;;;;;7.75;4.95;;;15.70;80.60;;;;;;5116433;28;20035;-68
2022/06/28 06:18:57;;;;;;;10.00;5.03;;;15.70;80.30;;;;;;5116457;28;20024;-68
2022/06/28 06:21:23;;;;;;;11.85;5.35;;;15.80;79.80;;;;;;5116380;28;20383;-68
2022/06/28 06:23:49;;;;;;;18.25;5.80;;;15.80;79.90;;;;;;5116314;28;20040;-68
2022/06/28 06:26:14;;;;;;;13.65;6.00;;;15.90;80.00;;;;;;5098244;28;20036;-68
2022/06/28 06:28:40;;;;;;;9.55;4.65;;;15.90;80.30;;;;;;5115957;28;20060;-68
2022/06/28 06:31:07;;;;;;;12.60;4.95;;;16.00;79.50;;;;;;5116075;28;20115;-68
2022/06/28 06:33:34;;;;;;;7.47;4.65;;;16.10;79.60;;;;;;5098544;28;20088;-68
2022/06/28 06:36:00;;;;;;;12.43;5.70;;;16.00;77.90;;;;;;5116027;28;20028;-69
2022/06/28 06:38:25;;;;;;;8.18;4.97;;;16.10;78.70;;;;;;5116137;28;20039;-68
2022/06/28 06:40:51;;;;;;;10.43;5.55;;;16.20;79.10;;;;;;5115978;28;20045;-68
2022/06/28 06:43:17;;;;;;;10.70;5.65;;;16.30;78.40;;;;;;5114586;28;20434;-68
2022/06/28 06:45:42;;;;;;;12.43;5.75;;;16.30;78.40;;;;;;5115982;28;20019;-68
2022/06/28 06:48:08;;;;;;;8.48;5.40;;;16.40;78.70;;;;;;5115930;28;20080;-68
2022/06/28 06:50:34;;;;;;;9.32;5.30;;;16.40;77.90;;;;;;5115676;28;20099;-68
2022/06/28 06:53:02;;;;;;;15.15;5.25;;;16.50;78.00;;;;;;5115684;28;20025;-68
2022/06/28 06:55:28;;;;;;;14.38;5.15;;;16.50;78.60;;;;;;5115681;28;20027;-68
2022/06/28 06:57:53;;;;;;;7.85;5.07;;;16.50;78.20;;;;;;5115635;28;20016;-69
2022/06/28 07:00:19;;;;;;;11.93;5.57;;;16.60;78.40;;;;;;5115602;28;20491;-69
2022/06/28 07:02:45;;;;;;;11.45;5.13;;;16.60;76.80;;;;;;5115526;28;20054;-68
2022/06/28 07:05:11;;;;;;;14.57;5.43;;;16.70;77.20;;;;;;5115497;28;20084;-68
2022/06/28 07:07:36;;;;;;;10.10;4.53;;;16.80;77.90;;;;;;5115560;28;20096;-68
2022/06/28 07:10:03;;;;;;;12.45;4.75;;;16.80;77.20;;;;;;5115305;28;20021;-68
2022/06/28 07:12:29;;;;;;;10.88;4.60;;;16.90;76.40;;;;;;5115365;28;20020;-68
2022/06/28 07:14:55;;;;;;;12.45;5.97;;;16.90;76.10;;;;;;5115315;28;20103;-68
2022/06/28 07:17:21;;;;;;;9.48;4.60;;;16.90;76.20;;;;;;5115078;28;20024;-68
2022/06/28 07:19:46;;;;;;;11.98;4.53;;;16.90;74.40;;;;;;5114896;28;20024;-68
2022/06/28 07:22:12;;;;;;;12.32;4.30;;;17.00;75.10;;;;;;5115149;28;20044;-69
2022/06/28 07:24:37;;;;;;;6.43;3.80;;;17.10;75.00;;;;;;5115142;28;20115;-68
2022/06/28 07:27:03;;;;;;;9.43;3.88;;;17.10;73.90;;;;;;5115025;28;20024;-68
2022/06/28 07:29:29;;;;;;;9.43;3.88;;;17.30;73.70;;;;;;5114658;28;20161;-68
2022/06/28 07:31:56;;;;;;;7.55;3.72;;;17.30;70.70;;;;;;5114838;28;20032;-68
2022/06/28 07:34:22;;;;;;;7.18;4.28;;;17.30;71.10;;;;;;5114935;28;20391;-69
2022/06/28 07:36:48;;;;;;;12.98;3.95;;;17.40;72.40;;;;;;5097045;28;20040;-69
2022/06/28 07:39:14;;;;;;;8.10;3.42;;;17.40;71.40;;;;;;5114833;28;20054;-69
2022/06/28 07:41:40;;;;;;;6.47;3.05;;;17.40;71.20;;;;;;5096812;28;20040;-69
2022/06/28 07:44:05;;;;;;;11.32;3.28;;;17.50;70.30;;;;;;5114753;28;20111;-68
2022/06/28 07:46:32;;;;;;;7.25;3.60;;;17.60;68.90;;;;;;5114693;28;20028;-69
2022/06/28 07:48:58;;;;;;;9.27;3.80;;;17.60;69.70;;;;;;5114655;28;20016;-69
2022/06/28 07:54:08;;;;;;;6.70;2.72;;;17.70;68.90;;;;;;5114175;28;20050;-69
2022/06/28 07:56:34;;;;;;;10.82;3.30;;;17.80;67.40;;;;;;5114502;28;20076;-68
2022/06/28 07:59:00;;;;;;;8.63;2.20;;;17.80;67.30;;;;;;5114415;28;20024;-69
2022/06/28 08:01:26;;;;;;;4.70;2.10;;;17.90;67.90;;;;;;5114408;28;20054;-68
2022/06/28 08:03:52;;;;;;;5.88;1.92;;;17.90;66.30;;;;;;5114371;28;20036;-68
2022/06/28 08:06:17;;;;;;;8.63;2.17;;;18.00;64.80;;;;;;5114318;28;20042;-68
2022/06/28 08:08:43;;;;;;;6.50;2.30;;;18.00;65.70;;;;;;5114443;28;20040;-68
2022/06/28 08:11:10;;;;;;;6.05;2.13;;;18.20;66.10;;;;;;5114182;28;20031;-69
2022/06/28 08:13:37;;;;;;;9.27;2.17;;;18.20;64.80;;;;;;5114196;28;20073;-68
2022/06/28 08:16:03;;;;;;;5.57;2.72;;;18.20;63.50;;;;;;5114154;28;20050;-69
2022/06/28 08:18:29;;;;;;;4.45;1.88;;;18.20;64.80;;;;;;5114065;28;20028;-69
2022/06/28 08:20:55;;;;;;;9.30;2.38;;;18.30;62.00;;;;;;5114075;28;20048;-68
2022/06/28 08:23:21;;;;;;;6.75;2.30;;;18.20;61.40;;;;;;5113947;28;20038;-69
2022/06/28 08:25:47;;;;;;;5.18;2.60;;;18.40;64.30;;;;;;5114096;28;20044;-69
2022/06/28 08:28:13;;;;;;;4.78;2.00;;;18.40;61.40;;;;;;5113788;28;20084;-69
2022/06/28 08:30:40;;;;;;;6.10;2.40;;;18.50;62.10;;;;;;5113870;28;20058;-68
2022/06/28 08:33:07;;;;;;;7.90;2.15;;;18.50;61.50;;;;;;5113908;28;20031;-69
2022/06/28 08:35:34;;;;;;;3.95;2.20;;;18.60;63.90;;;;;;5113804;28;20055;-69
2022/06/28 08:38:01;;;;;;;5.95;2.10;;;18.60;63.50;;;;;;5113788;28;20021;-69
2022/06/28 08:40:27;;;;;;;6.28;2.20;;;18.70;64.80;;;;;;5113701;28;20505;-69
2022/06/28 08:42:55;;;;;;;7.82;1.73;;;18.80;63.00;;;;;;5113812;28;20117;-68
2022/06/28 08:45:22;;;;;;;6.00;1.83;;;18.90;63.40;;;;;;5113655;28;20024;-68
2022/06/28 08:47:51;;;;;;;4.22;1.67;;;18.90;63.10;;;;;;5113625;28;20024;-69
2022/06/28 08:50:34;;;;;;;3.90;1.58;;;19.10;62.90;;;;;;5113510;28;20027;-68
2022/06/28 08:53:01;;;;;;;6.85;1.67;;;19.20;64.10;;;;;;5113530;28;20031;-68
2022/06/28 08:55:29;;;;;;;7.15;1.73;;;19.10;60.70;;;;;;5113559;28;20017;-69
2022/06/28 08:57:56;;;;;;;11.45;2.03;;;19.20;61.10;;;;;;5113577;28;20016;-68
2022/06/28 09:00:22;;;;;;;4.07;1.50;;;19.20;62.40;;;;;;5113431;28;20031;-69
2022/06/28 09:02:47;;;;;;;3.60;1.00;;;19.30;61.30;;;;;;5113454;28;20027;-69
2022/06/28 09:05:13;;;;;;;4.43;1.15;;;19.40;61.00;;;;;;5095413;28;20554;-68
2022/06/28 09:07:39;;;;;;;4.70;1.13;;;19.40;60.20;;;;;;5094800;28;20103;-69
2022/06/28 09:10:05;;;;;;;2.95;0.90;;;19.40;58.30;;;;;;5113305;28;20078;-68
2022/06/28 09:12:33;;;;;;;2.70;0.90;;;19.40;60.70;;;;;;5113459;28;20031;-68
2022/06/28 09:14:59;;;;;;;3.40;1.05;;;19.50;60.40;;;;;;5113298;28;20020;-69
2022/06/28 09:17:29;;;;;;;4.53;1.63;;;19.60;59.50;;;;;;5113258;28;20048;-68
2022/06/28 09:19:58;;;;;;;5.28;1.40;;;19.70;59.40;;;;;;5113228;28;20057;-68
2022/06/28 09:22:28;;;;;;;2.95;1.15;;;19.70;60.30;;;;;;5113229;28;20050;-68
2022/06/28 09:24:54;;;;;;;3.35;0.80;;;19.70;58.30;;;;;;5113315;28;20024;-68
2022/06/28 09:27:35;;;;;;;3.30;1.00;;;19.70;56.80;;;;;;5113105;28;20360;-68
2022/06/28 09:30:03;;;;;;;2.50;1.30;;;19.60;57.10;;;;;;5094971;28;20507;-68
2022/06/28 09:32:31;;;;;;;4.28;1.20;;;19.80;61.30;;;;;;5113157;28;20097;-68
2022/06/28 09:35:10;;;;;;;3.55;1.10;;;19.90;58.60;;;;;;5113145;28;20081;-69
2022/06/28 09:37:50;;;;;;;4.00;1.27;;;20.00;57.70;;;;;;5113174;28;20048;-69
2022/06/28 09:40:28;;;;;;;4.32;1.40;;;20.00;58.60;;;;;;5113143;28;20031;-69
2022/06/28 09:43:14;;;;;;;5.72;1.27;;;20.10;57.60;;;;;;5113111;28;20028;-69
2022/06/28 09:45:46;;;;;;;6.22;1.42;;;20.20;59.40;;;;;;5113081;28;20077;-69
2022/06/28 09:48:19;;;;;;;5.47;1.73;;;20.20;57.00;;;;;;5113082;28;20020;-69
2022/06/28 09:50:45;;;;;;;4.70;1.50;;;20.30;57.60;;;;;;5112946;28;20032;-69
2022/06/28 09:53:20;;;;;;;3.45;1.50;;;20.40;59.50;;;;;;5112959;28;20026;-68
2022/06/28 09:55:45;;;;;;;6.25;1.60;;;20.50;59.50;;;;;;5113082;28;20043;-68
2022/06/28 09:58:11;;;;;;;3.95;1.27;;;20.60;58.70;;;;;;5112869;28;20032;-69
2022/06/28 10:00:40;;;;;;;3.58;1.20;;;20.60;56.10;;;;;;5112901;28;20036;-68
2022/06/28 10:03:06;;;;;;;4.53;1.40;;;20.60;57.50;;;;;;5112907;28;20028;-69
2022/06/28 10:05:32;;;;;;;5.68;1.40;;;20.60;56.60;;;;;;5113005;28;20116;-68
2022/06/28 10:07:59;;;;;;;3.03;1.27;;;20.80;58.20;;;;;;5112833;28;20028;-69
2022/06/28 10:10:24;;;;;;;4.68;1.20;;;20.80;57.50;;;;;;5112726;28;20035;-68
2022/06/28 10:15:43;;;;;;;4.00;1.20;;;20.90;55.00;;;;;;5112938;28;20088;-69
2022/06/28 10:18:17;;;;;;;4.97;1.27;;;20.90;55.90;;;;;;5114666;28;20024;-68
2022/06/28 10:20:44;;;;;;;5.75;1.42;;;21.00;56.20;;;;;;5116379;28;20043;-68
2022/06/28 10:23:33;;;;;;;5.18;1.27;;;21.00;56.10;;;;;;5116294;28;20028;-68
2022/06/28 10:26:19;;;;;;;3.55;1.20;;;21.10;57.50;;;;;;5116426;28;20059;-68
2022/06/28 10:29:01;;;;;;;4.80;1.60;;;21.30;57.50;;;;;;5116050;28;20070;-69
2022/06/28 10:31:29;;;;;;;4.13;1.08;;;21.20;56.90;;;;;;5116181;28;20043;-68
2022/06/28 10:33:55;;;;;;;1.25;0.93;;;21.10;55.70;;;;;;5098105;28;20113;-69
2022/06/28 10:36:24;;;;;;;6.72;1.25;;;21.20;55.20;;;;;;5116093;28;20024;-69
2022/06/28 10:39:08;;;;;;;3.13;1.13;;;21.30;55.50;;;;;;5115997;28;20030;-69
2022/06/28 10:41:56;;;;;;;3.58;1.20;;;21.30;52.80;;;;;;5115930;28;20063;-69
2022/06/28 10:44:41;;;;;;;6.97;1.20;;;21.30;56.00;;;;;;5115901;28;20036;-69
2022/06/28 10:47:07;;;;;;;3.17;1.58;;;21.40;56.10;;;;;;5115934;28;20032;-69
2022/06/28 10:49:54;;;;;;;4.35;1.30;;;21.50;56.80;;;;;;5115802;28;20024;-69
2022/06/28 10:52:30;;;;;;;1.83;1.00;;;21.50;54.50;;;;;;5115689;28;20021;-69
2022/06/28 10:54:56;;;;;;;5.30;1.52;;;21.50;54.00;;;;;;5115801;28;20095;-68
2022/06/28 10:57:35;;;;;;;2.97;1.20;;;21.50;55.20;;;;;;5115740;28;20035;-69
2022/06/28 11:00:07;;;;;;;2.70;1.13;;;21.60;55.60;;;;;;5115739;28;20031;-69
2022/06/28 11:02:46;;;;;;;4.00;1.30;;;21.70;53.90;;;;;;5115727;28;20026;-69
2022/06/28 11:05:12;;;;;;;3.47;1.02;;;21.70;53.10;;;;;;5115518;28;20024;-69
2022/06/28 11:07:40;;;;;;;4.97;1.20;;;21.70;56.80;;;;;;5115460;28;20043;-68
2022/06/28 11:10:16;;;;;;;3.35;1.27;;;21.90;55.10;;;;;;5115337;28;20024;-68
2022/06/28 11:12:43;;;;;;;1.67;1.08;;;21.90;54.80;;;;;;5115397;28;20096;-69
2022/06/28 11:15:12;;;;;;;4.45;1.38;;;22.00;55.10;;;;;;5115395;28;20016;-69
2022/06/28 11:17:41;;;;;;;3.38;1.10;;;22.20;56.00;;;;;;5115287;28;20020;-68
2022/06/28 11:20:14;;;;;;;2.67;1.10;;;22.20;51.80;;;;;;5115114;28;20028;-68
2022/06/28 11:22:43;;;;;;;3.05;1.10;;;22.30;52.80;;;;;;5115358;28;20027;-69
2022/06/28 11:25:18;;;;;;;2.47;1.10;;;22.30;53.30;;;;;;5115090;28;20016;-68
2022/06/28 11:27:47;;;;;;;2.38;1.15;;;22.30;52.70;;;;;;5115001;28;20016;-68
2022/06/28 11:30:14;;;;;;;1.98;1.08;;;22.40;56.00;;;;;;5113998;28;20458;-69
2022/06/28 11:32:43;;;;;;;3.40;1.15;;;22.30;52.90;;;;;;5114942;28;20032;-69
2022/06/28 11:35:16;;;;;;;2.88;1.48;;;22.30;54.90;;;;;;5114882;28;20043;-69
2022/06/28 11:37:52;;;;;;;3.17;1.10;;;22.30;53.10;;;;;;5114866;28;20054;-68
2022/06/28 11:40:47;;;;;;;2.78;1.23;;;22.40;54.10;;;;;;5115056;28;20027;-69
2022/06/28 11:43:14;;;;;;;5.47;1.13;;;22.40;52.80;;;;;;5114837;28;20108;-68
2022/06/28 11:45:46;;;;;;;3.70;1.35;;;22.60;53.50;;;;;;5114734;28;20020;-68
2022/06/28 11:48:18;;;;;;;2.67;1.10;;;22.80;55.40;;;;;;5114673;28;20035;-69
2022/06/28 11:50:46;;;;;;;2.87;1.30;;;22.80;51.90;;;;;;5114560;28;20020;-68
2022/06/28 11:53:14;;;;;;;5.05;1.17;;;22.80;50.10;;;;;;5114536;28;20301;-68
2022/06/28 11:55:46;;;;;;;3.92;1.20;;;22.80;51.10;;;;;;5114538;28;20016;-68
2022/06/28 11:58:19;;;;;;;3.65;1.13;;;22.90;51.20;;;;;;5114500;28;20024;-68
2022/06/28 12:01:13;;;;;;;3.33;1.15;;;22.80;51.40;;;;;;5114536;28;20020;-68
2022/06/28 12:03:42;;;;;;;4.32;1.50;;;22.80;51.30;;;;;;5114540;28;20039;-69
2022/06/28 12:06:12;;;;;;;2.33;1.00;;;22.80;51.60;;;;;;5114392;28;20050;-69
2022/06/28 12:08:52;;;;;;;3.55;1.10;;;22.90;53.30;;;;;;5114394;28;20047;-70
2022/06/28 12:11:26;;;;;;;4.32;1.23;;;23.00;50.30;;;;;;5114312;28;20016;-69
2022/06/28 12:14:17;;;;;;;5.13;1.15;;;23.00;52.60;;;;;;5114229;28;20031;-69
2022/06/28 12:16:52;;;;;;;3.92;1.00;;;23.00;50.10;;;;;;5114347;28;20046;-69
2022/06/28 12:19:20;;;;;;;3.40;1.48;;;22.90;50.90;;;;;;5114143;28;20016;-69
2022/06/28 12:21:59;;;;;;;2.03;1.15;;;22.80;50.20;;;;;;5114054;28;20035;-69
2022/06/28 12:24:38;;;;;;;2.35;1.10;;;22.80;52.30;;;;;;5113991;28;20039;-69
2022/06/28 12:27:04;;;;;;;5.78;1.38;;;22.60;52.40;;;;;;5113969;28;20020;-69
2022/06/28 12:29:29;;;;;;;5.32;1.40;;;22.70;53.60;;;;;;5113741;28;20121;-69
2022/06/28 12:31:55;;;;;;;3.22;1.40;;;22.80;52.90;;;;;;5113819;28;20038;-69
2022/06/28 12:34:21;;;;;;;6.55;1.48;;;23.00;52.00;;;;;;5113837;28;20084;-69
2022/06/28 12:36:46;;;;;;;2.92;1.25;;;23.00;50.20;;;;;;5113776;28;20023;-68
2022/06/28 12:39:12;;;;;;;2.67;1.30;;;23.00;50.20;;;;;;5113738;28;20500;-69
2022/06/28 12:41:38;;;;;;;3.72;1.38;;;23.00;49.20;;;;;;5113705;28;20020;-69
2022/06/28 12:44:03;;;;;;;3.58;1.23;;;23.00;50.10;;;;;;5113674;28;20049;-69
2022/06/28 12:46:29;;;;;;;2.45;1.50;;;22.90;51.30;;;;;;5113688;28;20035;-69
2022/06/28 12:48:55;;;;;;;4.80;1.50;;;22.90;53.50;;;;;;5113650;28;20020;-69
2022/06/28 12:51:21;;;;;;;2.55;1.23;;;23.00;50.80;;;;;;5113486;28;20479;-68
2022/06/28 12:53:46;;;;;;;1.90;1.02;;;23.00;50.20;;;;;;5113586;28;20027;-69
2022/06/28 12:56:15;;;;;;;6.47;1.50;;;23.10;49.70;;;;;;5113556;28;20114;-68
2022/06/28 12:58:42;;;;;;;4.65;1.33;;;23.20;49.90;;;;;;5113507;28;20032;-68
2022/06/28 13:01:08;;;;;;;4.45;1.40;;;23.30;51.00;;;;;;5113456;28;20036;-68